createdAt,value
2019-05-01T00:03:22.351Z,-0.46
2019-05-01T00:07:35.309Z,-0.34
2019-05-01T00:11:37.387Z,-0.40
2019-05-01T00:15:40.192Z,-0.46
2019-05-01T00:19:43.687Z,-0.57
2019-05-01T00:23:45.877Z,-0.52
2019-05-01T00:27:48.226Z,-0.62
2019-05-01T00:31:50.391Z,-0.70
2019-05-01T00:35:52.281Z,-0.78
2019-05-01T00:39:54.378Z,-0.82
2019-05-01T00:43:57.141Z,-0.88
2019-05-01T00:48:00.544Z,-0.99
2019-05-01T00:52:02.436Z,-1.06
2019-05-01T00:56:29.342Z,-1.13
2019-05-01T01:00:44.957Z,-1.14
2019-05-01T01:04:46.796Z,-1.10
2019-05-01T01:08:49.142Z,-1.00
2019-05-01T01:12:51.148Z,-0.98
2019-05-01T01:16:53.081Z,-1.04
2019-05-01T01:20:55.202Z,-1.12
2019-05-01T01:24:57.158Z,-1.07
2019-05-01T01:28:59.688Z,-1.16
2019-05-01T01:33:02.899Z,-1.21
2019-05-01T01:37:05.356Z,-1.20
2019-05-01T01:41:07.603Z,-1.26
2019-05-01T01:45:38.260Z,-1.29
2019-05-01T01:49:40.767Z,-1.35
2019-05-01T01:53:42.864Z,-1.45
2019-05-01T01:57:44.775Z,-1.47
2019-05-01T02:02:08.625Z,-1.50
2019-05-01T02:06:10.976Z,-1.54
2019-05-01T02:10:14.252Z,-1.52
2019-05-01T02:14:16.303Z,-1.57
2019-05-01T02:18:18.238Z,-1.60
2019-05-01T02:22:20.564Z,-1.60
2019-05-01T02:26:24.312Z,-1.59
2019-05-01T02:30:27.062Z,-1.56
2019-05-01T02:34:30.581Z,-1.50
2019-05-01T02:38:33.112Z,-1.46
2019-05-01T02:42:38.468Z,-1.44
2019-05-01T02:46:43.133Z,-1.43
2019-05-01T02:50:48.916Z,-1.36
2019-05-01T02:54:51.509Z,-1.39
2019-05-01T02:58:56.157Z,-1.41
2019-05-01T03:02:58.272Z,-1.36
2019-05-01T03:07:01.378Z,-1.32
2019-05-01T03:11:03.319Z,-1.29
2019-05-01T03:15:05.770Z,-1.18
2019-05-01T03:19:12.547Z,-1.02
2019-05-01T03:23:22.504Z,-0.81
2019-05-01T03:27:24.512Z,-0.68
2019-05-01T03:31:26.753Z,-0.51
2019-05-01T03:35:29.281Z,-0.36
2019-05-01T03:39:31.267Z,-0.19
2019-05-01T03:43:34.151Z,-0.02
2019-05-01T03:47:36.627Z,0.13
2019-05-01T03:51:40.611Z,0.35
2019-05-01T03:55:42.795Z,0.50
2019-05-01T03:59:45.428Z,0.74
2019-05-01T04:03:50.922Z,0.94
2019-05-01T04:07:53.031Z,1.18
2019-05-01T04:11:55.367Z,1.46
2019-05-01T04:15:57.917Z,1.76
2019-05-01T04:20:00.264Z,2.08
2019-05-01T04:24:02.511Z,2.37
2019-05-01T04:28:23.794Z,2.68
2019-05-01T04:32:50.060Z,3.08
2019-05-01T04:36:42.263Z,3.52
2019-05-01T04:40:47.612Z,4.01
2019-05-01T04:44:50.303Z,4.38
2019-05-01T04:48:52.946Z,4.67
2019-05-01T04:52:56.961Z,5.05
2019-05-01T04:56:59.364Z,5.20
2019-05-01T05:01:02.185Z,5.54
2019-05-01T05:05:04.233Z,5.82
2019-05-01T05:09:07.157Z,6.07
2019-05-01T05:13:26.822Z,6.39
2019-05-01T05:17:29.517Z,6.62
2019-05-01T05:21:31.466Z,6.94
2019-05-01T05:25:33.613Z,7.24
2019-05-01T05:29:36.665Z,7.64
2019-05-01T05:33:40.235Z,8.00
2019-05-01T05:38:03.536Z,8.21
2019-05-01T05:42:06.572Z,8.15
2019-05-01T05:46:08.744Z,8.37
2019-05-01T05:50:12.467Z,8.70
2019-05-01T05:54:35.978Z,8.99
2019-05-01T05:58:44.827Z,9.18
2019-05-01T06:03:14.168Z,9.36
2019-05-01T06:07:52.685Z,9.75
2019-05-01T06:12:18.311Z,9.91
2019-05-01T06:16:40.531Z,10.21
2019-05-01T06:21:03.890Z,10.24
2019-05-01T06:25:21.542Z,10.38
2019-05-01T06:29:15.128Z,10.73
2019-05-01T06:33:17.464Z,11.10
2019-05-01T06:37:25.267Z,11.33
2019-05-01T06:41:28.679Z,11.44
2019-05-01T06:45:34.713Z,11.20
2019-05-01T06:50:06.086Z,11.63
2019-05-01T06:54:16.195Z,11.90
2019-05-01T06:58:14.851Z,12.05
2019-05-01T07:02:19.696Z,12.26
2019-05-01T07:06:26.134Z,12.28
2019-05-01T07:10:31.561Z,12.27
2019-05-01T07:14:30.255Z,12.51
2019-05-01T07:18:32.082Z,12.83
2019-05-01T07:22:37.015Z,12.94
2019-05-01T07:26:38.008Z,13.17
2019-05-01T07:30:49.779Z,13.33
2019-05-01T07:34:51.055Z,13.57
2019-05-01T07:38:53.141Z,13.80
2019-05-01T07:42:59.370Z,14.25
2019-05-01T07:47:18.240Z,14.32
2019-05-01T07:51:20.822Z,14.34
2019-05-01T07:55:39.301Z,14.48
2019-05-01T07:59:41.247Z,14.58
2019-05-01T08:03:44.461Z,14.47
2019-05-01T08:07:46.366Z,14.61
2019-05-01T08:11:48.215Z,14.65
2019-05-01T08:15:50.086Z,14.80
2019-05-01T08:20:09.934Z,15.28
2019-05-01T08:24:11.905Z,15.14
2019-05-01T08:28:31.961Z,15.46
2019-05-01T08:32:52.017Z,16.09
2019-05-01T08:36:53.998Z,15.44
2019-05-01T08:40:56.874Z,14.96
2019-05-01T08:45:30.169Z,14.41
2019-05-01T08:49:50.981Z,14.91
2019-05-01T08:53:57.622Z,15.65
2019-05-01T08:57:56.551Z,16.38
2019-05-01T09:02:08.930Z,15.94
2019-05-01T09:06:02.074Z,16.40
2019-05-01T09:10:04.504Z,17.07
2019-05-01T09:14:07.446Z,16.83
2019-05-01T09:18:09.317Z,16.39
2019-05-01T09:22:11.399Z,16.62
2019-05-01T09:26:30.779Z,17.36
2019-05-01T09:30:43.835Z,17.23
2019-05-01T09:34:45.903Z,17.43
2019-05-01T09:38:50.053Z,17.47
2019-05-01T09:42:54.778Z,17.04
2019-05-01T09:46:55.162Z,16.57
2019-05-01T09:51:24.888Z,16.49
2019-05-01T09:55:32.235Z,16.40
2019-05-01T09:59:34.116Z,16.27
2019-05-01T10:03:36.084Z,16.74
2019-05-01T10:07:38.577Z,17.02
2019-05-01T10:11:41.815Z,16.71
2019-05-01T10:15:44.069Z,17.40
2019-05-01T10:19:45.991Z,17.67
2019-05-01T10:23:51.688Z,17.00
2019-05-01T10:28:07.161Z,16.82
2019-05-01T10:32:12.468Z,17.15
2019-05-01T10:36:33.177Z,16.48
2019-05-01T10:40:35.494Z,16.10
2019-05-01T10:44:37.483Z,15.98
2019-05-01T10:48:39.346Z,15.84
2019-05-01T10:52:41.506Z,15.89
2019-05-01T10:56:43.387Z,15.73
2019-05-01T11:00:47.475Z,15.93
2019-05-01T11:04:49.843Z,15.62
2019-05-01T11:08:52.054Z,15.89
2019-05-01T11:12:54.011Z,16.31
2019-05-01T11:16:56.345Z,16.55
2019-05-01T11:20:59.022Z,16.81
2019-05-01T11:25:00.856Z,17.10
2019-05-01T11:29:03.314Z,16.65
2019-05-01T11:33:24.823Z,16.85
2019-05-01T11:38:00.920Z,16.68
2019-05-01T11:42:05.897Z,16.50
2019-05-01T11:46:08.125Z,16.57
2019-05-01T11:50:10.350Z,16.41
2019-05-01T11:54:12.277Z,16.34
2019-05-01T11:58:14.443Z,16.19
2019-05-01T12:02:16.308Z,16.06
2019-05-01T12:06:23.089Z,15.92
2019-05-01T12:10:23.808Z,16.28
2019-05-01T12:14:26.837Z,16.45
2019-05-01T12:18:28.829Z,16.33
2019-05-01T12:22:31.742Z,16.29
2019-05-01T12:26:33.746Z,16.31
2019-05-01T12:30:36.954Z,16.27
2019-05-01T12:34:38.906Z,16.51
2019-05-01T12:38:42.127Z,16.63
2019-05-01T12:42:44.004Z,16.31
2019-05-01T12:46:58.324Z,16.64
2019-05-01T12:51:00.548Z,16.90
2019-05-01T12:55:11.500Z,16.80
2019-05-01T12:59:13.383Z,16.22
2019-05-01T13:03:15.708Z,16.26
2019-05-01T13:07:17.718Z,16.18
2019-05-01T13:11:19.901Z,16.05
2019-05-01T13:15:21.988Z,15.94
2019-05-01T13:19:23.838Z,16.12
2019-05-01T13:23:25.732Z,15.75
2019-05-01T13:27:48.676Z,15.75
2019-05-01T13:32:15.206Z,15.81
2019-05-01T13:36:17.261Z,15.53
2019-05-01T13:40:26.282Z,15.53
2019-05-01T13:44:29.083Z,15.14
2019-05-01T13:48:31.126Z,15.19
2019-05-01T13:52:33.143Z,15.24
2019-05-01T13:56:38.105Z,15.29
2019-05-01T14:00:40.660Z,14.87
2019-05-01T14:04:42.586Z,15.00
2019-05-01T14:08:45.685Z,14.66
2019-05-01T14:12:48.315Z,14.75
2019-05-01T14:16:50.194Z,14.64
2019-05-01T14:21:09.967Z,14.71
2019-05-01T14:25:11.994Z,14.74
2019-05-01T14:29:14.067Z,15.00
2019-05-01T14:33:15.942Z,15.64
2019-05-01T14:37:29.059Z,15.64
2019-05-01T14:41:21.483Z,15.20
2019-05-01T14:45:23.617Z,14.30
2019-05-01T14:49:25.438Z,13.59
2019-05-01T14:53:27.429Z,13.55
2019-05-01T14:57:29.397Z,13.36
2019-05-01T15:01:31.522Z,13.57
2019-05-01T15:05:34.012Z,13.87
2019-05-01T15:09:35.873Z,14.11
2019-05-01T15:13:58.375Z,14.57
2019-05-01T15:18:09.615Z,14.28
2019-05-01T15:22:11.612Z,13.51
2019-05-01T15:26:13.722Z,13.21
2019-05-01T15:30:18.674Z,12.89
2019-05-01T15:34:20.905Z,12.50
2019-05-01T15:38:22.827Z,12.33
2019-05-01T15:42:36.312Z,12.43
2019-05-01T15:46:39.979Z,12.62
2019-05-01T15:50:44.710Z,12.60
2019-05-01T15:54:45.484Z,12.40
2019-05-01T15:58:47.402Z,12.34
2019-05-01T16:02:49.326Z,12.19
2019-05-01T16:06:51.416Z,12.14
2019-05-01T16:11:03.535Z,11.92
2019-05-01T16:15:12.820Z,11.85
2019-05-01T16:19:14.691Z,11.71
2019-05-01T16:23:16.822Z,11.59
2019-05-01T16:27:18.677Z,11.50
2019-05-01T16:31:21.030Z,11.52
2019-05-01T16:35:22.880Z,11.31
2019-05-01T16:39:43.651Z,11.18
2019-05-01T16:43:45.520Z,11.04
2019-05-01T16:47:47.422Z,10.98
2019-05-01T16:51:49.311Z,10.91
2019-05-01T16:55:51.345Z,10.88
2019-05-01T16:59:53.182Z,10.79
2019-05-01T17:04:09.587Z,10.76
2019-05-01T17:08:36.979Z,10.73
2019-05-01T17:12:50.755Z,10.58
2019-05-01T17:16:52.795Z,10.27
2019-05-01T17:20:54.817Z,9.87
2019-05-01T17:24:58.452Z,9.48
2019-05-01T17:29:00.311Z,9.11
2019-05-01T17:33:02.186Z,8.82
2019-05-01T17:37:04.165Z,8.66
2019-05-01T17:41:06.430Z,8.52
2019-05-01T17:45:08.581Z,8.38
2019-05-01T17:49:10.636Z,8.18
2019-05-01T17:53:12.549Z,8.01
2019-05-01T17:57:14.358Z,7.96
2019-05-01T18:01:35.662Z,7.91
2019-05-01T18:06:01.194Z,7.76
2019-05-01T18:10:00.023Z,7.67
2019-05-01T18:14:01.915Z,7.75
2019-05-01T18:18:03.944Z,7.61
2019-05-01T18:22:12.549Z,7.60
2019-05-01T18:26:33.164Z,7.56
2019-05-01T18:30:40.414Z,7.48
2019-05-01T18:34:42.288Z,7.34
2019-05-01T18:38:54.320Z,7.29
2019-05-01T18:42:56.307Z,7.15
2019-05-01T18:46:58.162Z,7.09
2019-05-01T18:51:00.383Z,7.09
2019-05-01T18:55:02.232Z,7.07
2019-05-01T18:59:04.259Z,6.98
2019-05-01T19:03:06.538Z,6.96
2019-05-01T19:07:08.506Z,6.92
2019-05-01T19:11:13.003Z,6.76
2019-05-01T19:15:14.843Z,6.70
2019-05-01T19:19:16.777Z,6.64
2019-05-01T19:23:22.120Z,6.73
2019-05-01T19:27:24.396Z,6.63
2019-05-01T19:31:26.536Z,6.56
2019-05-01T19:35:31.138Z,6.56
2019-05-01T19:39:42.947Z,6.49
2019-05-01T19:43:40.064Z,6.48
2019-05-01T19:47:39.496Z,6.37
2019-05-01T19:51:42.369Z,6.32
2019-05-01T19:55:44.846Z,6.19
2019-05-01T19:59:48.941Z,6.19
2019-05-01T20:03:50.874Z,6.14
2019-05-01T20:07:56.056Z,6.11
2019-05-01T20:11:56.486Z,6.06
2019-05-01T20:15:58.341Z,6.03
2019-05-01T20:20:00.209Z,6.03
2019-05-01T20:24:04.470Z,5.99
2019-05-01T20:28:06.263Z,5.97
2019-05-01T20:32:08.106Z,5.95
2019-05-01T20:36:11.072Z,5.98
2019-05-01T20:40:13.191Z,5.92
2019-05-01T20:44:23.270Z,5.88
2019-05-01T20:48:23.464Z,5.90
2019-05-01T20:52:23.751Z,5.88
2019-05-01T20:56:43.777Z,5.87
2019-05-01T21:00:48.225Z,5.84
2019-05-01T21:04:57.841Z,5.86
2019-05-01T21:09:08.413Z,5.84
2019-05-01T21:13:10.406Z,5.82
2019-05-01T21:17:13.697Z,5.81
2019-05-01T21:21:16.028Z,5.82
2019-05-01T21:25:18.078Z,5.87
2019-05-01T21:29:19.906Z,5.81
2019-05-01T21:33:23.753Z,5.79
2019-05-01T21:37:25.420Z,5.78
2019-05-01T21:41:27.275Z,5.77
2019-05-01T21:45:29.104Z,5.75
2019-05-01T21:49:33.150Z,5.67
2019-05-01T21:53:37.448Z,5.66
2019-05-01T21:57:40.706Z,5.63
2019-05-01T22:01:42.051Z,5.63
2019-05-01T22:05:44.031Z,5.58
2019-05-01T22:09:50.551Z,5.58
2019-05-01T22:13:49.675Z,5.56
2019-05-01T22:18:15.549Z,5.53
2019-05-01T22:22:33.400Z,5.52
2019-05-01T22:26:39.302Z,5.50
2019-05-01T22:31:00.319Z,5.46
2019-05-01T22:35:15.275Z,5.47
2019-05-01T22:39:18.807Z,5.42
2019-05-01T22:43:20.965Z,5.38
2019-05-01T22:47:22.916Z,5.39
2019-05-01T22:51:24.862Z,5.37
2019-05-01T22:55:26.807Z,5.34
2019-05-01T22:59:28.600Z,5.32
2019-05-01T23:03:57.403Z,5.34
2019-05-01T23:07:59.315Z,5.31
2019-05-01T23:12:01.232Z,5.32
2019-05-01T23:16:03.292Z,5.26
2019-05-01T23:20:07.310Z,5.27
2019-05-01T23:24:10.247Z,5.24
2019-05-01T23:28:13.299Z,5.23
2019-05-01T23:32:15.127Z,5.24
2019-05-01T23:36:23.763Z,5.19
2019-05-01T23:40:21.280Z,5.20
2019-05-01T23:44:23.161Z,5.20
2019-05-01T23:48:24.962Z,5.21
2019-05-01T23:52:26.838Z,5.21
2019-05-01T23:56:31.029Z,5.15
